sensor_id;sensor_type;location;lat;lon;timestamp;P1;durP1;ratioP1;P2;durP2;ratioP2
70457;SDS011;57919;56.194;95.716;2022-07-23T00:06:38;8.63;;;3.73;;
70457;SDS011;57919;56.194;95.716;2022-07-23T00:16:40;7.30;;;3.40;;
70457;SDS011;57919;56.194;95.716;2022-07-23T00:26:42;6.35;;;3.25;;
70457;SDS011;57919;56.194;95.716;2022-07-23T00:36:44;7.87;;;3.70;;
70457;SDS011;57919;56.194;95.716;2022-07-23T00:46:50;6.07;;;3.40;;
70457;SDS011;57919;56.194;95.716;2022-07-23T00:56:57;6.87;;;3.07;;
70457;SDS011;57919;56.194;95.716;2022-07-23T01:07:00;5.77;;;2.73;;
70457;SDS011;57919;56.194;95.716;2022-07-23T01:17:02;8.25;;;3.42;;
70457;SDS011;57919;56.194;95.716;2022-07-23T01:27:06;7.80;;;4.10;;
70457;SDS011;57919;56.194;95.716;2022-07-23T01:37:11;6.72;;;4.43;;
70457;SDS011;57919;56.194;95.716;2022-07-23T01:47:14;7.60;;;3.43;;
70457;SDS011;57919;56.194;95.716;2022-07-23T01:57:17;10.27;;;4.43;;
70457;SDS011;57919;56.194;95.716;2022-07-23T02:07:20;8.60;;;4.30;;
70457;SDS011;57919;56.194;95.716;2022-07-23T02:17:22;7.40;;;3.73;;
70457;SDS011;57919;56.194;95.716;2022-07-23T02:27:24;6.85;;;4.03;;
70457;SDS011;57919;56.194;95.716;2022-07-23T02:37:27;7.00;;;3.20;;
70457;SDS011;57919;56.194;95.716;2022-07-23T02:47:29;7.20;;;3.50;;
70457;SDS011;57919;56.194;95.716;2022-07-23T02:57:35;11.55;;;3.03;;
70457;SDS011;57919;56.194;95.716;2022-07-23T03:07:37;6.67;;;2.73;;
70457;SDS011;57919;56.194;95.716;2022-07-23T03:17:39;5.20;;;2.80;;
70457;SDS011;57919;56.194;95.716;2022-07-23T03:27:41;4.97;;;2.90;;
70457;SDS011;57919;56.194;95.716;2022-07-23T03:37:44;6.43;;;2.80;;
70457;SDS011;57919;56.194;95.716;2022-07-23T03:47:47;5.55;;;2.05;;
70457;SDS011;57919;56.194;95.716;2022-07-23T03:57:49;6.17;;;3.10;;
70457;SDS011;57919;56.194;95.716;2022-07-23T04:07:51;5.82;;;3.40;;
70457;SDS011;57919;56.194;95.716;2022-07-23T04:17:54;6.33;;;2.87;;
70457;SDS011;57919;56.194;95.716;2022-07-23T04:27:58;6.77;;;3.30;;
70457;SDS011;57919;56.194;95.716;2022-07-23T04:38:00;6.80;;;3.28;;
70457;SDS011;57919;56.194;95.716;2022-07-23T04:48:03;6.50;;;3.20;;
70457;SDS011;57919;56.194;95.716;2022-07-23T04:58:06;6.22;;;3.33;;
70457;SDS011;57919;56.194;95.716;2022-07-23T05:08:08;7.03;;;2.63;;
70457;SDS011;57919;56.194;95.716;2022-07-23T05:18:13;9.10;;;4.13;;
70457;SDS011;57919;56.194;95.716;2022-07-23T05:28:16;6.43;;;3.80;;
70457;SDS011;57919;56.194;95.716;2022-07-23T05:38:18;6.33;;;3.07;;
70457;SDS011;57919;56.194;95.716;2022-07-23T05:48:20;7.55;;;3.58;;
70457;SDS011;57919;56.194;95.716;2022-07-23T05:58:43;7.03;;;3.10;;
70457;SDS011;57919;56.194;95.716;2022-07-23T06:08:45;6.30;;;2.90;;
70457;SDS011;57919;56.194;95.716;2022-07-23T06:18:47;7.45;;;3.88;;
70457;SDS011;57919;56.194;95.716;2022-07-23T06:28:50;7.57;;;3.30;;
70457;SDS011;57919;56.194;95.716;2022-07-23T06:38:52;9.30;;;3.42;;
70457;SDS011;57919;56.194;95.716;2022-07-23T06:48:54;7.83;;;4.27;;
70457;SDS011;57919;56.194;95.716;2022-07-23T06:58:56;12.13;;;4.50;;
70457;SDS011;57919;56.194;95.716;2022-07-23T07:08:58;22.75;;;8.93;;
70457;SDS011;57919;56.194;95.716;2022-07-23T07:19:00;15.17;;;4.57;;
70457;SDS011;57919;56.194;95.716;2022-07-23T07:29:02;7.78;;;4.85;;
70457;SDS011;57919;56.194;95.716;2022-07-23T07:39:04;5.87;;;3.30;;
70457;SDS011;57919;56.194;95.716;2022-07-23T07:49:08;7.60;;;3.67;;
70457;SDS011;57919;56.194;95.716;2022-07-23T07:59:09;7.53;;;3.63;;
70457;SDS011;57919;56.194;95.716;2022-07-23T08:09:12;6.53;;;4.10;;
70457;SDS011;57919;56.194;95.716;2022-07-23T08:19:15;7.20;;;3.17;;
70457;SDS011;57919;56.194;95.716;2022-07-23T08:29:17;7.83;;;2.83;;
70457;SDS011;57919;56.194;95.716;2022-07-23T08:39:19;4.90;;;2.37;;
70457;SDS011;57919;56.194;95.716;2022-07-23T08:49:21;7.13;;;2.90;;
70457;SDS011;57919;56.194;95.716;2022-07-23T08:59:24;5.93;;;3.63;;
70457;SDS011;57919;56.194;95.716;2022-07-23T09:09:28;6.80;;;3.00;;
70457;SDS011;57919;56.194;95.716;2022-07-23T09:19:32;10.80;;;3.03;;
70457;SDS011;57919;56.194;95.716;2022-07-23T09:29:34;11.67;;;4.37;;
70457;SDS011;57919;56.194;95.716;2022-07-23T09:39:36;9.73;;;4.72;;
70457;SDS011;57919;56.194;95.716;2022-07-23T09:49:38;8.30;;;3.60;;
70457;SDS011;57919;56.194;95.716;2022-07-23T09:59:40;8.40;;;3.65;;
70457;SDS011;57919;56.194;95.716;2022-07-23T10:09:44;8.00;;;3.60;;
70457;SDS011;57919;56.194;95.716;2022-07-23T10:20:27;6.63;;;3.70;;
70457;SDS011;57919;56.194;95.716;2022-07-23T10:51:15;9.88;;;3.65;;
70457;SDS011;57919;56.194;95.716;2022-07-23T11:01:33;5.67;;;3.13;;
70457;SDS011;57919;56.194;95.716;2022-07-23T11:11:37;18.20;;;3.43;;
70457;SDS011;57919;56.194;95.716;2022-07-23T11:21:41;8.40;;;3.05;;
70457;SDS011;57919;56.194;95.716;2022-07-23T11:31:58;8.53;;;4.50;;
70457;SDS011;57919;56.194;95.716;2022-07-23T11:42:02;7.25;;;4.25;;
70457;SDS011;57919;56.194;95.716;2022-07-23T11:52:09;6.87;;;3.93;;
70457;SDS011;57919;56.194;95.716;2022-07-23T12:02:13;8.20;;;5.20;;
70457;SDS011;57919;56.194;95.716;2022-07-23T12:12:15;12.65;;;5.60;;
70457;SDS011;57919;56.194;95.716;2022-07-23T12:22:19;19.93;;;14.07;;
70457;SDS011;57919;56.194;95.716;2022-07-23T12:32:22;18.67;;;9.10;;
70457;SDS011;57919;56.194;95.716;2022-07-23T12:42:29;11.03;;;6.17;;
70457;SDS011;57919;56.194;95.716;2022-07-23T12:52:43;13.67;;;6.37;;
70457;SDS011;57919;56.194;95.716;2022-07-23T13:02:45;11.27;;;6.43;;
70457;SDS011;57919;56.194;95.716;2022-07-23T13:12:48;11.00;;;6.53;;
70457;SDS011;57919;56.194;95.716;2022-07-23T13:22:50;8.68;;;5.85;;
70457;SDS011;57919;56.194;95.716;2022-07-23T13:32:51;12.03;;;6.13;;
70457;SDS011;57919;56.194;95.716;2022-07-23T13:42:54;19.93;;;10.20;;
70457;SDS011;57919;56.194;95.716;2022-07-23T13:52:56;53.58;;;29.58;;
70457;SDS011;57919;56.194;95.716;2022-07-23T14:02:58;24.50;;;15.83;;
70457;SDS011;57919;56.194;95.716;2022-07-23T14:13:01;29.83;;;20.23;;
70457;SDS011;57919;56.194;95.716;2022-07-23T14:23:05;35.30;;;20.53;;
70457;SDS011;57919;56.194;95.716;2022-07-23T14:33:06;20.60;;;10.10;;
70457;SDS011;57919;56.194;95.716;2022-07-23T14:43:09;12.60;;;7.97;;
70457;SDS011;57919;56.194;95.716;2022-07-23T14:53:11;23.73;;;14.67;;
70457;SDS011;57919;56.194;95.716;2022-07-23T15:03:13;15.00;;;8.85;;
70457;SDS011;57919;56.194;95.716;2022-07-23T15:13:15;10.87;;;6.60;;
70457;SDS011;57919;56.194;95.716;2022-07-23T15:23:17;10.03;;;5.97;;
70457;SDS011;57919;56.194;95.716;2022-07-23T15:33:20;21.10;;;10.07;;
70457;SDS011;57919;56.194;95.716;2022-07-23T15:43:23;16.10;;;8.70;;
70457;SDS011;57919;56.194;95.716;2022-07-23T15:53:25;11.60;;;6.82;;
70457;SDS011;57919;56.194;95.716;2022-07-23T16:03:27;9.20;;;5.30;;
70457;SDS011;57919;56.194;95.716;2022-07-23T16:13:29;10.10;;;5.80;;
70457;SDS011;57919;56.194;95.716;2022-07-23T16:23:31;12.50;;;6.68;;
70457;SDS011;57919;56.194;95.716;2022-07-23T16:33:34;15.93;;;8.10;;
70457;SDS011;57919;56.194;95.716;2022-07-23T16:43:36;11.85;;;6.22;;
70457;SDS011;57919;56.194;95.716;2022-07-23T16:53:38;9.93;;;5.93;;
70457;SDS011;57919;56.194;95.716;2022-07-23T17:03:40;14.53;;;6.43;;
70457;SDS011;57919;56.194;95.716;2022-07-23T17:13:42;15.00;;;8.90;;
70457;SDS011;57919;56.194;95.716;2022-07-23T17:23:44;14.93;;;8.40;;
70457;SDS011;57919;56.194;95.716;2022-07-23T17:33:46;18.33;;;8.15;;
70457;SDS011;57919;56.194;95.716;2022-07-23T17:43:49;11.17;;;5.50;;
70457;SDS011;57919;56.194;95.716;2022-07-23T17:53:51;9.17;;;5.93;;
70457;SDS011;57919;56.194;95.716;2022-07-23T18:03:52;8.65;;;5.28;;
70457;SDS011;57919;56.194;95.716;2022-07-23T18:13:55;9.37;;;5.97;;
70457;SDS011;57919;56.194;95.716;2022-07-23T18:23:58;11.75;;;5.70;;
70457;SDS011;57919;56.194;95.716;2022-07-23T18:34:00;9.27;;;5.13;;
70457;SDS011;57919;56.194;95.716;2022-07-23T18:44:02;9.70;;;5.40;;
70457;SDS011;57919;56.194;95.716;2022-07-23T18:54:05;11.50;;;6.32;;
70457;SDS011;57919;56.194;95.716;2022-07-23T19:04:11;14.27;;;7.83;;
70457;SDS011;57919;56.194;95.716;2022-07-23T19:14:14;10.80;;;6.97;;
70457;SDS011;57919;56.194;95.716;2022-07-23T19:24:16;11.23;;;6.27;;
70457;SDS011;57919;56.194;95.716;2022-07-23T19:34:18;13.00;;;7.20;;
70457;SDS011;57919;56.194;95.716;2022-07-23T19:44:19;15.43;;;7.43;;
70457;SDS011;57919;56.194;95.716;2022-07-23T19:54:21;16.17;;;7.97;;
70457;SDS011;57919;56.194;95.716;2022-07-23T20:04:23;18.88;;;8.43;;
70457;SDS011;57919;56.194;95.716;2022-07-23T20:14:26;14.67;;;8.43;;
70457;SDS011;57919;56.194;95.716;2022-07-23T20:24:28;16.73;;;8.23;;
70457;SDS011;57919;56.194;95.716;2022-07-23T20:34:29;12.85;;;7.15;;
70457;SDS011;57919;56.194;95.716;2022-07-23T20:44:32;11.53;;;7.20;;
70457;SDS011;57919;56.194;95.716;2022-07-23T20:54:34;17.05;;;7.55;;
70457;SDS011;57919;56.194;95.716;2022-07-23T21:04:36;14.07;;;7.97;;
70457;SDS011;57919;56.194;95.716;2022-07-23T21:14:38;16.93;;;7.53;;
70457;SDS011;57919;56.194;95.716;2022-07-23T21:24:40;16.88;;;6.68;;
70457;SDS011;57919;56.194;95.716;2022-07-23T21:34:42;10.37;;;4.90;;
70457;SDS011;57919;56.194;95.716;2022-07-23T21:44:44;10.60;;;5.28;;
70457;SDS011;57919;56.194;95.716;2022-07-23T21:54:46;9.70;;;5.47;;
70457;SDS011;57919;56.194;95.716;2022-07-23T22:04:48;11.87;;;6.43;;
70457;SDS011;57919;56.194;95.716;2022-07-23T22:14:50;10.48;;;5.88;;
70457;SDS011;57919;56.194;95.716;2022-07-23T22:24:52;11.43;;;6.53;;
70457;SDS011;57919;56.194;95.716;2022-07-23T22:34:54;10.88;;;5.93;;
70457;SDS011;57919;56.194;95.716;2022-07-23T22:44:56;12.47;;;6.30;;
70457;SDS011;57919;56.194;95.716;2022-07-23T22:54:58;10.70;;;6.17;;
70457;SDS011;57919;56.194;95.716;2022-07-23T23:05:00;10.50;;;5.68;;
70457;SDS011;57919;56.194;95.716;2022-07-23T23:15:03;11.10;;;6.20;;
70457;SDS011;57919;56.194;95.716;2022-07-23T23:25:06;10.23;;;6.00;;
70457;SDS011;57919;56.194;95.716;2022-07-23T23:35:09;8.93;;;5.43;;
70457;SDS011;57919;56.194;95.716;2022-07-23T23:45:10;11.70;;;5.53;;
70457;SDS011;57919;56.194;95.716;2022-07-23T23:55:13;10.43;;;5.30;;
